Mc Entire JNGB Airport
KMMT : now visible

Airfield :











YOU CAN JOIN US ON...

 
LOGIN :

Register | Disclaimer

   EN    FR    IT 

 









Legend :    VFR   Marginal VFR   IFR   Intensive IFR   Very Intensive IFR
Visi :
Ceiling :
>= 8 km
>= 3000ft
5 to 8 km
1000 to 3000 ft
1500m to 5 km
500 to 1000 ft
800 to 1500m
200 to 500 ft
< 800m
< 200 ft
Symbols :   Thunderstorms  Fog  Heavy snow  Heavy precipitations  Wind > 20 kt






- Airport Elevation : 254 ft


KMMT - Mc Entire JNGB

CURRENT METAR :
  • 120256Z AUTO 00000KT 10SM CLR 01/01 A3052 RMK AO2 SLPNO T00110010 53002 $

EXPIRED METARs :
  • 120156Z AUTO 00000KT 10SM CLR 03/02 A3052 RMK AO2 SLPNO T00310019 $
  • 120056Z 00000KT 10SM BKN230 06/03 A3051 RMK AO2A SLPNO T00560029 $

TAF TAF KMMT
Valid from the 12 at 00:00 until the 13 at 06:00 UTC


120000Z 1200/1306 03006KT 9999 SCT200 510703 QNH3045INS
BECMG 1205/1206 05006KT 9999 SKC QNH3054INS
BECMG 1214/1215 06015G25KT 9999 SCT220 QNH3060INS
BECMG 1217/1218 06010G15KT 9999 SCT220 QNH3045INS
BECMG 1223/1224 05012KT 9999 SCT030 BKN050 QNH3040INS
BECMG 1303/1304 05012KT 9000 -RA BKN020 OVC045 QNH3035INS TX09/1217Z TN02/1211Z



MET'MAP, your aeronautical weather chart ! - Copyright ORBIFLY December 2007 - Disclaimer

ORBIFLY MET'MAP TEAM :

Programming & Development : Alexandra Zaïnal
Concept & original design : Baudouin d'Aumeries
Assistance for programming : Marc-Olivier Méhu
Technical & hardware support : Manuel Goepfert

Contact : metmap@orbifly.com




SOURCES & CREDITS :

   NOAA       Earth
Advisory